sensor_id;sensor_type;location;lat;lon;timestamp;pressure;altitude;pressure_sealevel;temperature;humidity
45467;BME280;31212;49.734;8.490;2023-04-26T00:01:02;100599.34;;;2.84;81.36
45467;BME280;31212;49.734;8.490;2023-04-26T00:03:29;100614.47;;;2.78;81.61
45467;BME280;31212;49.734;8.490;2023-04-26T00:05:58;100630.44;;;2.71;82.74
45467;BME280;31212;49.734;8.490;2023-04-26T00:08:28;100639.94;;;2.73;82.95
45467;BME280;31212;49.734;8.490;2023-04-26T00:10:56;100648.34;;;2.69;83.31
45467;BME280;31212;49.734;8.490;2023-04-26T00:13:22;100656.94;;;2.71;83.71
45467;BME280;31212;49.734;8.490;2023-04-26T00:15:49;100659.44;;;2.69;83.88
45467;BME280;31212;49.734;8.490;2023-04-26T00:18:15;100668.25;;;2.76;84.73
45467;BME280;31212;49.734;8.490;2023-04-26T00:20:42;100661.19;;;2.71;84.41
45467;BME280;31212;49.734;8.490;2023-04-26T00:23:09;100649.38;;;2.74;83.70
45467;BME280;31212;49.734;8.490;2023-04-26T00:25:35;100653.09;;;2.60;84.22
45467;BME280;31212;49.734;8.490;2023-04-26T00:28:03;100655.19;;;2.47;84.15
45467;BME280;31212;49.734;8.490;2023-04-26T00:30:30;100675.63;;;2.46;85.00
45467;BME280;31212;49.734;8.490;2023-04-26T00:32:56;100693.47;;;2.44;85.47
45467;BME280;31212;49.734;8.490;2023-04-26T00:35:23;100699.72;;;2.51;86.15
45467;BME280;31212;49.734;8.490;2023-04-26T00:37:49;100692.56;;;2.42;85.80
45467;BME280;31212;49.734;8.490;2023-04-26T00:40:16;100691.59;;;2.40;86.40
45467;BME280;31212;49.734;8.490;2023-04-26T00:42:45;100702.09;;;2.46;87.00
45467;BME280;31212;49.734;8.490;2023-04-26T00:45:13;100702.19;;;2.27;86.63
45467;BME280;31212;49.734;8.490;2023-04-26T00:47:39;100713.63;;;2.35;86.84
45467;BME280;31212;49.734;8.490;2023-04-26T00:50:06;100705.78;;;2.32;87.01
45467;BME280;31212;49.734;8.490;2023-04-26T00:52:34;100702.09;;;2.25;87.10
45467;BME280;31212;49.734;8.490;2023-04-26T00:55:01;100704.66;;;2.25;87.43
45467;BME280;31212;49.734;8.490;2023-04-26T00:57:28;100702.19;;;2.27;87.08
45467;BME280;31212;49.734;8.490;2023-04-26T00:59:55;100693.13;;;2.35;87.04
45467;BME280;31212;49.734;8.490;2023-04-26T01:02:22;100691.94;;;2.27;87.00
45467;BME280;31212;49.734;8.490;2023-04-26T01:04:49;100689.50;;;2.30;86.74
45467;BME280;31212;49.734;8.490;2023-04-26T01:07:16;100697.66;;;2.21;86.96
45467;BME280;31212;49.734;8.490;2023-04-26T01:09:43;100696.91;;;2.24;87.38
45467;BME280;31212;49.734;8.490;2023-04-26T01:12:10;100693.53;;;2.25;87.14
45467;BME280;31212;49.734;8.490;2023-04-26T01:14:38;100704.91;;;2.31;87.12
45467;BME280;31212;49.734;8.490;2023-04-26T01:17:05;100694.16;;;2.19;87.21
45467;BME280;31212;49.734;8.490;2023-04-26T01:19:33;100693.22;;;2.17;87.03
45467;BME280;31212;49.734;8.490;2023-04-26T01:22:02;100693.50;;;2.04;87.20
45467;BME280;31212;49.734;8.490;2023-04-26T01:24:29;100697.09;;;1.88;87.79
45467;BME280;31212;49.734;8.490;2023-04-26T01:26:58;100706.75;;;1.74;88.05
45467;BME280;31212;49.734;8.490;2023-04-26T01:29:24;100717.47;;;1.65;88.71
45467;BME280;31212;49.734;8.490;2023-04-26T01:31:51;100714.84;;;1.63;89.29
45467;BME280;31212;49.734;8.490;2023-04-26T01:34:18;100723.66;;;1.50;89.77
45467;BME280;31212;49.734;8.490;2023-04-26T01:36:45;100732.34;;;1.54;89.81
45467;BME280;31212;49.734;8.490;2023-04-26T01:39:11;100726.81;;;1.45;90.40
45467;BME280;31212;49.734;8.490;2023-04-26T01:41:39;100729.25;;;1.42;90.56
45467;BME280;31212;49.734;8.490;2023-04-26T01:44:06;100732.53;;;1.39;90.92
45467;BME280;31212;49.734;8.490;2023-04-26T01:46:32;100737.72;;;1.41;91.06
45467;BME280;31212;49.734;8.490;2023-04-26T01:48:59;100733.22;;;1.35;91.69
45467;BME280;31212;49.734;8.490;2023-04-26T01:51:25;100734.81;;;1.33;91.89
45467;BME280;31212;49.734;8.490;2023-04-26T01:53:52;100736.88;;;1.22;91.81
45467;BME280;31212;49.734;8.490;2023-04-26T01:56:18;100740.78;;;1.33;92.00
45467;BME280;31212;49.734;8.490;2023-04-26T01:58:46;100736.88;;;1.22;92.43
45467;BME280;31212;49.734;8.490;2023-04-26T02:01:13;100733.03;;;1.32;92.97
45467;BME280;31212;49.734;8.490;2023-04-26T02:03:39;100740.66;;;1.30;92.94
45467;BME280;31212;49.734;8.490;2023-04-26T02:06:06;100749.19;;;1.31;92.87
45467;BME280;31212;49.734;8.490;2023-04-26T02:08:32;100744.66;;;1.25;92.62
45467;BME280;31212;49.734;8.490;2023-04-26T02:10:59;100740.28;;;1.23;92.88
45467;BME280;31212;49.734;8.490;2023-04-26T02:13:25;100745.13;;;1.16;93.02
45467;BME280;31212;49.734;8.490;2023-04-26T02:15:54;100746.00;;;1.17;92.99
45467;BME280;31212;49.734;8.490;2023-04-26T02:18:20;100745.50;;;1.24;93.16
45467;BME280;31212;49.734;8.490;2023-04-26T02:20:49;100742.06;;;1.24;92.97
45467;BME280;31212;49.734;8.490;2023-04-26T02:23:15;100745.22;;;1.18;92.89
45467;BME280;31212;49.734;8.490;2023-04-26T02:25:44;100749.00;;;1.26;92.72
45467;BME280;31212;49.734;8.490;2023-04-26T02:28:10;100747.97;;;1.23;92.95
45467;BME280;31212;49.734;8.490;2023-04-26T02:30:37;100741.97;;;1.22;92.90
45467;BME280;31212;49.734;8.490;2023-04-26T02:33:05;100726.34;;;1.16;92.10
45467;BME280;31212;49.734;8.490;2023-04-26T02:35:33;100726.13;;;1.11;92.19
45467;BME280;31212;49.734;8.490;2023-04-26T02:38:00;100730.47;;;1.12;92.14
45467;BME280;31212;49.734;8.490;2023-04-26T02:40:27;100726.66;;;1.04;91.70
45467;BME280;31212;49.734;8.490;2023-04-26T02:42:54;100713.94;;;0.88;91.59
45467;BME280;31212;49.734;8.490;2023-04-26T02:45:21;100722.22;;;1.00;92.00
45467;BME280;31212;49.734;8.490;2023-04-26T02:47:48;100716.94;;;0.97;91.92
45467;BME280;31212;49.734;8.490;2023-04-26T02:50:16;100717.09;;;1.00;91.60
45467;BME280;31212;49.734;8.490;2023-04-26T02:52:43;100713.66;;;0.99;91.59
45467;BME280;31212;49.734;8.490;2023-04-26T02:55:09;100715.28;;;0.97;91.56
45467;BME280;31212;49.734;8.490;2023-04-26T02:57:36;100700.47;;;0.72;91.37
45467;BME280;31212;49.734;8.490;2023-04-26T03:00:06;100698.25;;;0.62;91.67
45467;BME280;31212;49.734;8.490;2023-04-26T03:02:34;100721.25;;;0.62;91.87
45467;BME280;31212;49.734;8.490;2023-04-26T03:05:00;100722.41;;;0.50;92.08
45467;BME280;31212;49.734;8.490;2023-04-26T03:07:29;100730.16;;;0.52;92.25
45467;BME280;31212;49.734;8.490;2023-04-26T03:09:57;100733.94;;;0.60;92.65
45467;BME280;31212;49.734;8.490;2023-04-26T03:12:25;100723.00;;;0.45;92.39
45467;BME280;31212;49.734;8.490;2023-04-26T03:14:51;100726.63;;;0.32;92.47
45467;BME280;31212;49.734;8.490;2023-04-26T03:17:19;100722.31;;;0.31;92.87
45467;BME280;31212;49.734;8.490;2023-04-26T03:19:46;100737.19;;;0.22;92.94
45467;BME280;31212;49.734;8.490;2023-04-26T03:22:12;100735.75;;;0.10;93.00
45467;BME280;31212;49.734;8.490;2023-04-26T03:24:42;100736.94;;;0.17;93.15
45467;BME280;31212;49.734;8.490;2023-04-26T03:27:10;100732.34;;;0.10;93.53
45467;BME280;31212;49.734;8.490;2023-04-26T03:29:37;100727.56;;;-0.01;93.28
45467;BME280;31212;49.734;8.490;2023-04-26T03:32:05;100741.81;;;-0.04;93.39
45467;BME280;31212;49.734;8.490;2023-04-26T03:34:31;100738.41;;;-0.05;93.94
45467;BME280;31212;49.734;8.490;2023-04-26T03:36:58;100745.34;;;-0.02;94.21
45467;BME280;31212;49.734;8.490;2023-04-26T03:39:24;100747.91;;;-0.02;94.45
45467;BME280;31212;49.734;8.490;2023-04-26T03:41:52;100748.44;;;0.09;94.99
45467;BME280;31212;49.734;8.490;2023-04-26T03:44:19;100749.84;;;0.20;95.05
45467;BME280;31212;49.734;8.490;2023-04-26T03:46:46;100751.47;;;0.18;95.01
45467;BME280;31212;49.734;8.490;2023-04-26T03:49:12;100753.06;;;0.16;95.12
45467;BME280;31212;49.734;8.490;2023-04-26T03:51:38;100747.88;;;0.14;94.97
45467;BME280;31212;49.734;8.490;2023-04-26T03:54:05;100749.97;;;0.22;95.08
45467;BME280;31212;49.734;8.490;2023-04-26T03:56:32;100751.63;;;0.21;95.03
45467;BME280;31212;49.734;8.490;2023-04-26T03:59:00;100749.78;;;0.19;95.05
45467;BME280;31212;49.734;8.490;2023-04-26T04:01:26;100746.22;;;0.15;94.82
45467;BME280;31212;49.734;8.490;2023-04-26T04:03:53;100750.56;;;0.17;95.05
45467;BME280;31212;49.734;8.490;2023-04-26T04:06:19;100742.13;;;0.19;95.32
45467;BME280;31212;49.734;8.490;2023-04-26T04:08:47;100743.75;;;0.16;95.20
45467;BME280;31212;49.734;8.490;2023-04-26T04:11:14;100739.28;;;0.12;95.21
45467;BME280;31212;49.734;8.490;2023-04-26T04:13:40;100739.75;;;0.22;95.20
45467;BME280;31212;49.734;8.490;2023-04-26T04:16:08;100740.53;;;0.21;95.12
45467;BME280;31212;49.734;8.490;2023-04-26T04:18:35;100741.66;;;0.26;95.02
45467;BME280;31212;49.734;8.490;2023-04-26T04:21:01;100745.06;;;0.26;95.00
45467;BME280;31212;49.734;8.490;2023-04-26T04:23:28;100742.59;;;0.28;94.95
45467;BME280;31212;49.734;8.490;2023-04-26T04:25:55;100734.13;;;0.29;94.92
45467;BME280;31212;49.734;8.490;2023-04-26T04:28:22;100743.78;;;0.35;94.85
45467;BME280;31212;49.734;8.490;2023-04-26T04:30:48;100744.00;;;0.39;94.93
45467;BME280;31212;49.734;8.490;2023-04-26T04:33:16;100748.91;;;0.53;94.74
45467;BME280;31212;49.734;8.490;2023-04-26T04:35:43;100753.91;;;0.68;94.69
45467;BME280;31212;49.734;8.490;2023-04-26T04:38:10;100754.47;;;0.62;94.46
45467;BME280;31212;49.734;8.490;2023-04-26T04:40:37;100744.16;;;0.60;94.48
45467;BME280;31212;49.734;8.490;2023-04-26T04:43:04;100748.50;;;0.61;94.21
45467;BME280;31212;49.734;8.490;2023-04-26T04:45:31;100759.88;;;0.68;94.11
45467;BME280;31212;49.734;8.490;2023-04-26T04:47:59;100761.44;;;0.82;94.10
45467;BME280;31212;49.734;8.490;2023-04-26T04:50:27;100766.09;;;0.91;93.99
45467;BME280;31212;49.734;8.490;2023-04-26T04:52:56;100769.91;;;0.99;93.71
45467;BME280;31212;49.734;8.490;2023-04-26T04:55:23;100766.91;;;1.08;93.45
45467;BME280;31212;49.734;8.490;2023-04-26T04:57:50;100770.56;;;1.13;93.27
45467;BME280;31212;49.734;8.490;2023-04-26T05:00:18;100770.47;;;1.12;93.13
45467;BME280;31212;49.734;8.490;2023-04-26T05:02:50;100760.91;;;1.08;92.54
45467;BME280;31212;49.734;8.490;2023-04-26T05:05:16;100760.72;;;1.03;92.34
45467;BME280;31212;49.734;8.490;2023-04-26T05:07:44;100758.81;;;0.99;92.39
45467;BME280;31212;49.734;8.490;2023-04-26T05:10:12;100756.25;;;0.99;92.36
45467;BME280;31212;49.734;8.490;2023-04-26T05:12:40;100763.03;;;0.98;92.15
45467;BME280;31212;49.734;8.490;2023-04-26T05:15:07;100759.81;;;1.03;92.25
45467;BME280;31212;49.734;8.490;2023-04-26T05:17:33;100765.22;;;1.09;92.18
45467;BME280;31212;49.734;8.490;2023-04-26T05:20:10;100771.44;;;1.14;92.29
45467;BME280;31212;49.734;8.490;2023-04-26T05:22:37;100772.00;;;1.26;92.07
45467;BME280;31212;49.734;8.490;2023-04-26T05:25:07;100772.50;;;1.37;92.28
45467;BME280;31212;49.734;8.490;2023-04-26T05:27:35;100774.69;;;1.47;92.18
45467;BME280;31212;49.734;8.490;2023-04-26T05:30:35;100774.63;;;1.65;92.26
45467;BME280;31212;49.734;8.490;2023-04-26T05:33:13;100778.03;;;1.84;91.88
45467;BME280;31212;49.734;8.490;2023-04-26T05:35:47;100783.97;;;2.03;91.92
45467;BME280;31212;49.734;8.490;2023-04-26T05:38:14;100780.38;;;2.18;91.40
45467;BME280;31212;49.734;8.490;2023-04-26T05:40:42;100785.16;;;2.30;91.27
45467;BME280;31212;49.734;8.490;2023-04-26T05:43:09;100776.47;;;2.48;91.04
45467;BME280;31212;49.734;8.490;2023-04-26T05:45:37;100771.06;;;2.61;91.16
45467;BME280;31212;49.734;8.490;2023-04-26T05:48:04;100782.94;;;2.80;90.72
45467;BME280;31212;49.734;8.490;2023-04-26T05:50:31;100788.28;;;3.08;91.12
45467;BME280;31212;49.734;8.490;2023-04-26T05:52:58;100787.50;;;3.31;90.50
45467;BME280;31212;49.734;8.490;2023-04-26T05:55:24;100771.88;;;3.48;90.27
45467;BME280;31212;49.734;8.490;2023-04-26T05:57:52;100761.31;;;3.63;88.92
45467;BME280;31212;49.734;8.490;2023-04-26T06:00:20;100757.84;;;3.85;88.60
45467;BME280;31212;49.734;8.490;2023-04-26T06:02:47;100754.50;;;4.12;87.72
45467;BME280;31212;49.734;8.490;2023-04-26T06:05:16;100746.22;;;4.46;87.22
45467;BME280;31212;49.734;8.490;2023-04-26T06:07:43;100722.16;;;4.70;85.56
45467;BME280;31212;49.734;8.490;2023-04-26T06:10:10;100684.28;;;4.93;83.99
45467;BME280;31212;49.734;8.490;2023-04-26T06:12:38;100638.72;;;5.19;82.27
45467;BME280;31212;49.734;8.490;2023-04-26T06:15:08;100599.00;;;5.40;81.15
45467;BME280;31212;49.734;8.490;2023-04-26T06:17:37;100557.91;;;5.78;79.32
45467;BME280;31212;49.734;8.490;2023-04-26T06:20:04;100534.03;;;6.20;77.95
45467;BME280;31212;49.734;8.490;2023-04-26T06:22:31;100492.47;;;6.89;76.90
45467;BME280;31212;49.734;8.490;2023-04-26T06:24:57;100421.34;;;7.55;74.75
45467;BME280;31212;49.734;8.490;2023-04-26T06:27:25;100334.28;;;8.16;71.59
45467;BME280;31212;49.734;8.490;2023-04-26T06:29:53;100283.44;;;9.12;69.75
45467;BME280;31212;49.734;8.490;2023-04-26T06:32:22;100157.69;;;9.99;65.71
45467;BME280;31212;49.734;8.490;2023-04-26T06:34:49;100066.91;;;10.26;62.77
45467;BME280;31212;49.734;8.490;2023-04-26T06:37:16;100038.13;;;11.10;61.88
45467;BME280;31212;49.734;8.490;2023-04-26T06:39:42;99910.72;;;11.25;58.78
45467;BME280;31212;49.734;8.490;2023-04-26T06:42:10;99923.66;;;11.32;58.13
45467;BME280;31212;49.734;8.490;2023-04-26T06:45:00;99963.34;;;11.54;58.37
45467;BME280;31212;49.734;8.490;2023-04-26T06:47:28;99895.84;;;12.30;56.39
45467;BME280;31212;49.734;8.490;2023-04-26T06:49:54;99867.06;;;13.03;54.54
45467;BME280;31212;49.734;8.490;2023-04-26T06:52:21;99792.78;;;13.77;52.80
45467;BME280;31212;49.734;8.490;2023-04-26T06:54:48;99706.47;;;13.46;51.48
45467;BME280;31212;49.734;8.490;2023-04-26T06:57:15;99800.69;;;15.61;50.25
45467;BME280;31212;49.734;8.490;2023-04-26T06:59:41;99627.16;;;15.90;47.07
45467;BME280;31212;49.734;8.490;2023-04-26T07:02:07;99575.88;;;16.10;45.67
45467;BME280;31212;49.734;8.490;2023-04-26T07:04:35;99550.81;;;16.55;44.77
45467;BME280;31212;49.734;8.490;2023-04-26T07:07:02;99530.38;;;16.90;43.37
45467;BME280;31212;49.734;8.490;2023-04-26T07:09:28;99623.44;;;17.49;44.02
45467;BME280;31212;49.734;8.490;2023-04-26T07:11:55;99548.50;;;17.42;43.10
45467;BME280;31212;49.734;8.490;2023-04-26T07:14:22;99676.69;;;17.04;44.96
45467;BME280;31212;49.734;8.490;2023-04-26T07:16:49;99545.75;;;15.13;45.08
45467;BME280;31212;49.734;8.490;2023-04-26T07:19:16;99628.72;;;16.23;45.05
45467;BME280;31212;49.734;8.490;2023-04-26T07:21:44;99705.94;;;14.49;47.70
45467;BME280;31212;49.734;8.490;2023-04-26T07:24:11;99785.78;;;12.81;50.07
45467;BME280;31212;49.734;8.490;2023-04-26T07:26:38;99775.00;;;10.96;51.77
45467;BME280;31212;49.734;8.490;2023-04-26T07:29:05;99914.63;;;10.53;54.37
45467;BME280;31212;49.734;8.490;2023-04-26T07:31:32;100039.00;;;11.14;55.77
45467;BME280;31212;49.734;8.490;2023-04-26T07:33:58;100038.34;;;12.09;53.85
45467;BME280;31212;49.734;8.490;2023-04-26T07:36:25;99942.09;;;10.99;53.60
45467;BME280;31212;49.734;8.490;2023-04-26T07:38:54;100074.66;;;10.67;56.17
45467;BME280;31212;49.734;8.490;2023-04-26T07:41:21;100037.53;;;12.00;53.66
45467;BME280;31212;49.734;8.490;2023-04-26T07:43:47;99963.41;;;11.46;53.56
45467;BME280;31212;49.734;8.490;2023-04-26T07:46:14;100023.63;;;12.05;54.06
45467;BME280;31212;49.734;8.490;2023-04-26T07:48:40;100014.97;;;14.03;51.35
45467;BME280;31212;49.734;8.490;2023-04-26T07:51:07;99886.59;;;14.27;49.10
45467;BME280;31212;49.734;8.490;2023-04-26T07:53:34;99752.81;;;15.57;46.08
45467;BME280;31212;49.734;8.490;2023-04-26T07:56:04;99670.94;;;13.40;47.21
45467;BME280;31212;49.734;8.490;2023-04-26T07:58:32;99828.22;;;15.74;46.61
45467;BME280;31212;49.734;8.490;2023-04-26T08:00:58;99681.50;;;16.10;44.74
45467;BME280;31212;49.734;8.490;2023-04-26T08:03:25;99620.34;;;16.38;43.39
45467;BME280;31212;49.734;8.490;2023-04-26T08:05:52;99577.97;;;16.00;43.52
45467;BME280;31212;49.734;8.490;2023-04-26T08:08:19;99610.22;;;16.79;43.27
45467;BME280;31212;49.734;8.490;2023-04-26T08:10:46;99500.06;;;14.65;43.82
45467;BME280;31212;49.734;8.490;2023-04-26T08:13:14;99730.00;;;13.85;47.53
45467;BME280;31212;49.734;8.490;2023-04-26T08:15:40;99623.66;;;15.60;44.24
45467;BME280;31212;49.734;8.490;2023-04-26T08:18:07;99579.53;;;17.07;41.97
45467;BME280;31212;49.734;8.490;2023-04-26T08:20:33;99670.09;;;18.32;41.98
45467;BME280;31212;49.734;8.490;2023-04-26T08:23:00;99422.72;;;19.36;38.03
45467;BME280;31212;49.734;8.490;2023-04-26T08:25:27;99360.13;;;18.50;37.72
45467;BME280;31212;49.734;8.490;2023-04-26T08:27:53;99489.41;;;17.31;40.23
45467;BME280;31212;49.734;8.490;2023-04-26T08:30:21;99476.44;;;19.31;38.22
45467;BME280;31212;49.734;8.490;2023-04-26T08:32:48;99423.13;;;19.63;37.35
45467;BME280;31212;49.734;8.490;2023-04-26T08:35:15;99234.06;;;20.35;34.43
45467;BME280;31212;49.734;8.490;2023-04-26T08:37:41;99247.69;;;20.90;34.04
45467;BME280;31212;49.734;8.490;2023-04-26T08:40:08;99120.78;;;20.80;32.52
45467;BME280;31212;49.734;8.490;2023-04-26T08:42:39;99182.00;;;20.55;33.13
45467;BME280;31212;49.734;8.490;2023-04-26T08:45:07;99232.00;;;20.72;33.49
45467;BME280;31212;49.734;8.490;2023-04-26T08:47:41;99153.63;;;20.74;32.55
45467;BME280;31212;49.734;8.490;2023-04-26T08:50:10;99239.72;;;20.59;33.43
45467;BME280;31212;49.734;8.490;2023-04-26T08:52:39;99096.13;;;20.04;32.02
45467;BME280;31212;49.734;8.490;2023-04-26T08:55:08;99040.06;;;17.85;33.34
45467;BME280;31212;49.734;8.490;2023-04-26T08:57:35;99189.97;;;20.07;32.84
45467;BME280;31212;49.734;8.490;2023-04-26T09:00:03;99264.84;;;20.34;33.13
45467;BME280;31212;49.734;8.490;2023-04-26T09:02:34;99146.91;;;21.13;31.25
45467;BME280;31212;49.734;8.490;2023-04-26T09:05:03;99133.88;;;20.81;31.27
45467;BME280;31212;49.734;8.490;2023-04-26T09:07:32;99090.38;;;19.97;31.82
45467;BME280;31212;49.734;8.490;2023-04-26T09:09:59;99200.16;;;19.14;33.64
45467;BME280;31212;49.734;8.490;2023-04-26T09:12:26;99290.06;;;19.91;33.99
45467;BME280;31212;49.734;8.490;2023-04-26T09:14:52;99156.25;;;20.44;31.56
45467;BME280;31212;49.734;8.490;2023-04-26T09:17:29;99245.56;;;20.34;32.77
45467;BME280;31212;49.734;8.490;2023-04-26T09:19:56;99211.22;;;20.20;32.57
45467;BME280;31212;49.734;8.490;2023-04-26T09:22:29;99147.38;;;20.14;31.83
45467;BME280;31212;49.734;8.490;2023-04-26T09:24:55;99132.31;;;19.03;32.76
45467;BME280;31212;49.734;8.490;2023-04-26T09:27:31;99148.44;;;20.42;31.42
45467;BME280;31212;49.734;8.490;2023-04-26T09:29:59;99135.19;;;19.32;32.30
45467;BME280;31212;49.734;8.490;2023-04-26T09:32:42;99150.19;;;18.61;33.07
45467;BME280;31212;49.734;8.490;2023-04-26T09:35:17;99246.16;;;18.88;33.79
45467;BME280;31212;49.734;8.490;2023-04-26T09:37:52;99381.72;;;20.17;33.87
45467;BME280;31212;49.734;8.490;2023-04-26T09:40:21;99263.72;;;21.31;31.73
45467;BME280;31212;49.734;8.490;2023-04-26T09:42:56;99190.41;;;22.62;29.52
45467;BME280;31212;49.734;8.490;2023-04-26T09:45:23;99024.13;;;21.35;28.95
45467;BME280;31212;49.734;8.490;2023-04-26T09:47:49;99096.84;;;20.38;30.73
45467;BME280;31212;49.734;8.490;2023-04-26T09:50:25;98975.63;;;18.99;30.80
45467;BME280;31212;49.734;8.490;2023-04-26T09:52:53;99086.78;;;18.15;32.52
45467;BME280;31212;49.734;8.490;2023-04-26T09:55:26;99219.97;;;17.54;34.52
45467;BME280;31212;49.734;8.490;2023-04-26T09:57:52;99016.13;;;16.59;33.03
45467;BME280;31212;49.734;8.490;2023-04-26T10:00:19;99101.75;;;16.16;34.06
45467;BME280;31212;49.734;8.490;2023-04-26T10:02:46;99186.31;;;16.18;34.77
45467;BME280;31212;49.734;8.490;2023-04-26T10:05:13;99230.69;;;15.75;35.81
45467;BME280;31212;49.734;8.490;2023-04-26T10:07:41;99197.28;;;16.93;34.23
45467;BME280;31212;49.734;8.490;2023-04-26T10:10:11;99140.16;;;16.38;34.01
45467;BME280;31212;49.734;8.490;2023-04-26T10:12:39;99126.22;;;17.20;32.86
45467;BME280;31212;49.734;8.490;2023-04-26T10:15:08;99193.81;;;17.72;32.58
45467;BME280;31212;49.734;8.490;2023-04-26T10:17:36;99052.25;;;17.69;31.30
45467;BME280;31212;49.734;8.490;2023-04-26T10:20:03;99106.78;;;17.81;31.84
45467;BME280;31212;49.734;8.490;2023-04-26T10:22:34;99188.31;;;17.59;33.29
45467;BME280;31212;49.734;8.490;2023-04-26T10:25:03;99090.31;;;16.60;32.87
45467;BME280;31212;49.734;8.490;2023-04-26T10:27:47;99206.47;;;17.82;32.96
45467;BME280;31212;49.734;8.490;2023-04-26T10:30:15;99106.50;;;17.30;32.45
45467;BME280;31212;49.734;8.490;2023-04-26T10:36:05;99033.53;;;15.98;33.38
45467;BME280;31212;49.734;8.490;2023-04-26T10:38:32;99238.28;;;17.95;33.32
45467;BME280;31212;49.734;8.490;2023-04-26T10:41:31;99075.59;;;17.56;31.87
45467;BME280;31212;49.734;8.490;2023-04-26T10:44:36;99075.50;;;16.38;33.51
45467;BME280;31212;49.734;8.490;2023-04-26T10:47:04;99142.03;;;15.91;34.01
45467;BME280;31212;49.734;8.490;2023-04-26T10:49:42;99121.16;;;15.66;34.49
45467;BME280;31212;49.734;8.490;2023-04-26T10:52:11;99193.84;;;15.58;35.36
45467;BME280;31212;49.734;8.490;2023-04-26T10:54:53;99183.78;;;15.22;35.79
45467;BME280;31212;49.734;8.490;2023-04-26T10:57:21;99230.06;;;14.94;36.48
45467;BME280;31212;49.734;8.490;2023-04-26T11:00:19;99242.03;;;15.51;35.55
45467;BME280;31212;49.734;8.490;2023-04-26T11:02:52;99184.81;;;15.90;34.79
45467;BME280;31212;49.734;8.490;2023-04-26T11:05:50;99210.00;;;14.68;36.39
45467;BME280;31212;49.734;8.490;2023-04-26T11:08:19;99366.56;;;16.76;35.34
45467;BME280;31212;49.734;8.490;2023-04-26T11:10:50;99251.69;;;18.27;33.07
45467;BME280;31212;49.734;8.490;2023-04-26T11:13:17;99184.81;;;18.52;31.90
45467;BME280;31212;49.734;8.490;2023-04-26T11:15:46;99240.38;;;20.00;31.53
45467;BME280;31212;49.734;8.490;2023-04-26T11:18:17;99151.66;;;20.78;30.10
45467;BME280;31212;49.734;8.490;2023-04-26T11:20:44;99110.00;;;20.69;30.01
45467;BME280;31212;49.734;8.490;2023-04-26T11:23:11;99045.78;;;20.70;29.51
45467;BME280;31212;49.734;8.490;2023-04-26T11:25:38;98966.75;;;19.64;29.33
45467;BME280;31212;49.734;8.490;2023-04-26T11:28:05;99118.44;;;20.59;29.80
45467;BME280;31212;49.734;8.490;2023-04-26T11:30:32;98974.94;;;18.95;30.37
45467;BME280;31212;49.734;8.490;2023-04-26T11:33:01;99021.84;;;17.45;31.96
45467;BME280;31212;49.734;8.490;2023-04-26T11:35:28;99095.56;;;17.01;32.97
45467;BME280;31212;49.734;8.490;2023-04-26T11:37:57;99220.50;;;17.62;34.13
45467;BME280;31212;49.734;8.490;2023-04-26T11:40:29;99158.00;;;17.90;32.91
45467;BME280;31212;49.734;8.490;2023-04-26T11:42:58;99198.13;;;17.35;33.96
45467;BME280;31212;49.734;8.490;2023-04-26T11:45:25;99216.72;;;17.49;33.98
45467;BME280;31212;49.734;8.490;2023-04-26T11:50:27;99257.59;;;17.13;34.91
45467;BME280;31212;49.734;8.490;2023-04-26T11:52:55;99136.66;;;17.40;33.37
45467;BME280;31212;49.734;8.490;2023-04-26T11:55:27;99190.31;;;17.12;33.79
45467;BME280;31212;49.734;8.490;2023-04-26T11:57:55;99196.44;;;17.13;34.23
45467;BME280;31212;49.734;8.490;2023-04-26T12:00:22;99130.34;;;16.84;33.42
45467;BME280;31212;49.734;8.490;2023-04-26T12:02:49;99240.09;;;16.71;35.11
45467;BME280;31212;49.734;8.490;2023-04-26T12:05:23;99199.97;;;17.52;33.88
45467;BME280;31212;49.734;8.490;2023-04-26T12:07:52;99257.22;;;18.40;33.23
45467;BME280;31212;49.734;8.490;2023-04-26T12:10:23;99341.56;;;17.55;35.21
45467;BME280;31212;49.734;8.490;2023-04-26T12:12:51;99102.38;;;16.43;33.75
45467;BME280;31212;49.734;8.490;2023-04-26T12:15:18;99091.81;;;16.24;34.21
45467;BME280;31212;49.734;8.490;2023-04-26T12:17:54;99282.44;;;17.46;34.86
45467;BME280;31212;49.734;8.490;2023-04-26T12:20:31;99249.00;;;17.51;34.30
45467;BME280;31212;49.734;8.490;2023-04-26T12:23:01;99263.00;;;16.66;35.38
45467;BME280;31212;49.734;8.490;2023-04-26T12:25:29;99249.94;;;16.87;35.27
45467;BME280;31212;49.734;8.490;2023-04-26T12:27:56;99386.47;;;17.88;35.44
45467;BME280;31212;49.734;8.490;2023-04-26T12:30:24;99363.03;;;18.25;34.90
45467;BME280;31212;49.734;8.490;2023-04-26T12:33:00;99204.41;;;18.08;33.34
45467;BME280;31212;49.734;8.490;2023-04-26T12:35:26;99204.09;;;18.33;33.16
45467;BME280;31212;49.734;8.490;2023-04-26T12:37:53;99184.94;;;18.31;32.94
45467;BME280;31212;49.734;8.490;2023-04-26T12:40:22;99104.53;;;17.54;32.94
45467;BME280;31212;49.734;8.490;2023-04-26T12:42:49;99157.50;;;18.20;32.88
45467;BME280;31212;49.734;8.490;2023-04-26T12:45:17;99105.97;;;18.70;31.89
45467;BME280;31212;49.734;8.490;2023-04-26T12:47:44;98974.75;;;17.25;32.00
45467;BME280;31212;49.734;8.490;2023-04-26T12:50:11;99008.19;;;17.75;31.52
45467;BME280;31212;49.734;8.490;2023-04-26T12:52:38;99056.06;;;18.17;31.56
45467;BME280;31212;49.734;8.490;2023-04-26T12:55:06;99113.13;;;17.58;32.47
45467;BME280;31212;49.734;8.490;2023-04-26T12:57:34;99084.09;;;17.42;32.63
45467;BME280;31212;49.734;8.490;2023-04-26T13:00:01;99066.81;;;16.79;33.62
45467;BME280;31212;49.734;8.490;2023-04-26T13:02:32;99124.16;;;16.23;34.42
45467;BME280;31212;49.734;8.490;2023-04-26T13:04:59;99086.19;;;15.91;33.93
45467;BME280;31212;49.734;8.490;2023-04-26T13:07:29;99081.81;;;15.91;34.38
45467;BME280;31212;49.734;8.490;2023-04-26T13:09:56;99148.78;;;15.97;34.61
45467;BME280;31212;49.734;8.490;2023-04-26T13:12:22;99160.03;;;15.75;35.31